Time;durP1;ratioP1;P1;durP2;ratioP2;P2;SDS_P1;SDS_P2;PMS_P1;PMS_P2;Temp;Humidity;BMP_temperature;BMP_pressure;BME280_temperature;BME280_humidity;BME280_pressure;Samples;Min_cycle;Max_cycle;Signal;HPM_P1;HPM_P2
2022/05/23 00:01:15;;;;;;;21.88;9.55;;;;;;;17.56;72.18;100551.94;5140942;27;20378;-63
2022/05/23 00:03:40;;;;;;;22.55;10.32;;;;;;;17.58;71.93;100559.91;5143647;27;20547;-63
2022/05/23 00:06:06;;;;;;;21.85;9.25;;;;;;;17.59;70.43;100561.63;5141550;27;20054;-63
2022/05/23 00:08:32;;;;;;;24.08;9.80;;;;;;;17.55;74.21;100555.53;5139507;27;20438;-62
2022/05/23 00:10:58;;;;;;;22.85;10.10;;;;;;;17.58;72.52;100559.91;5140810;27;20538;-64
2022/05/23 00:13:23;;;;;;;20.98;9.45;;;;;;;17.57;74.22;100559.00;5140565;27;20023;-63
2022/05/23 00:15:49;;;;;;;22.48;9.93;;;;;;;17.51;74.39;100563.69;5142799;27;20023;-63
2022/05/23 00:18:15;;;;;;;21.85;9.35;;;;;;;17.64;73.03;100559.72;5139221;27;20034;-65
2022/05/23 00:20:40;;;;;;;22.38;9.60;;;;;;;17.67;73.83;100556.94;5142919;27;20521;-65
2022/05/23 00:23:07;;;;;;;21.10;9.20;;;;;;;17.59;76.84;100558.97;5143235;27;20033;-66
2022/05/23 00:25:32;;;;;;;21.40;9.25;;;;;;;17.55;77.18;100551.97;5140278;27;20018;-65
2022/05/23 00:27:58;;;;;;;21.52;9.02;;;;;;;17.58;77.74;100543.88;5142756;27;20027;-65
2022/05/23 00:30:25;;;;;;;23.20;10.25;;;;;;;17.51;77.74;100535.16;5142732;27;20031;-64
2022/05/23 00:35:51;;;;;;;23.65;10.27;;;;;;;17.45;76.29;100532.66;5043856;28;20041;-65
2022/05/23 00:38:16;;;;;;;22.67;10.80;;;;;;;17.47;76.50;100543.31;5040290;28;20537;-65
2022/05/23 00:44:04;;;;;;;22.23;9.82;;;;;;;17.51;74.34;100539.63;5051869;28;20086;-65
2022/05/23 00:46:30;;;;;;;21.83;9.70;;;;;;;17.51;73.68;100531.59;5038101;28;20072;-65
2022/05/23 00:49:02;;;;;;;21.25;9.75;;;;;;;17.54;74.39;100528.84;5053086;28;20043;-65
2022/05/23 00:51:28;;;;;;;22.10;10.15;;;;;;;17.47;75.74;100521.94;5053452;28;20025;-66
2022/05/23 00:53:56;;;;;;;22.02;10.23;;;;;;;17.26;76.19;100510.94;5054099;28;20072;-65
2022/05/23 00:56:30;;;;;;;23.45;10.60;;;;;;;17.20;76.88;100500.44;5051025;28;20458;-64
2022/05/23 00:59:01;;;;;;;22.63;10.52;;;;;;;17.05;79.25;100499.97;5055256;28;20037;-66
2022/05/23 01:01:30;;;;;;;23.02;10.60;;;;;;;16.89;80.02;100506.63;5052998;28;20395;-65
2022/05/23 01:03:56;;;;;;;22.35;10.75;;;;;;;16.89;82.03;100506.63;5054584;28;20032;-66
2022/05/23 01:06:21;;;;;;;22.00;10.38;;;;;;;16.85;84.09;100508.47;5049845;28;20495;-65
2022/05/23 01:08:49;;;;;;;21.85;10.75;;;;;;;16.97;81.91;100512.63;5051971;28;20052;-65
2022/05/23 01:11:14;;;;;;;22.40;10.88;;;;;;;16.85;81.91;100516.47;5053829;28;20033;-66
2022/05/23 01:13:40;;;;;;;22.70;10.88;;;;;;;16.81;81.31;100519.28;5074697;28;20559;-63
2022/05/23 01:16:05;;;;;;;22.35;11.18;;;;;;;16.78;81.55;100530.91;5078337;28;20032;-65
2022/05/23 01:18:31;;;;;;;24.50;11.38;;;;;;;16.69;82.00;100526.69;5074329;28;20039;-66
2022/05/23 01:20:59;;;;;;;23.52;11.18;;;;;;;16.61;82.04;100518.00;5109288;27;20043;-66
2022/05/23 01:23:36;;;;;;;24.08;11.30;;;;;;;16.52;82.94;100520.91;5140509;27;20018;-65
2022/05/23 01:26:02;;;;;;;23.15;11.63;;;;;;;16.49;83.80;100508.50;5137560;27;20354;-65
2022/05/23 01:28:32;;;;;;;23.27;11.40;;;;;;;16.59;85.08;100503.81;5140548;27;20023;-65
2022/05/23 01:30:58;;;;;;;22.90;11.10;;;;;;;16.49;87.05;100504.97;5135288;27;20019;-66
2022/05/23 01:33:23;;;;;;;22.45;11.38;;;;;;;16.39;86.33;100507.00;5139136;27;20466;-65
2022/05/23 01:35:49;;;;;;;24.08;11.88;;;;;;;16.27;89.67;100500.19;5141308;27;20062;-65
2022/05/23 01:38:14;;;;;;;23.63;11.52;;;;;;;16.19;90.08;100495.03;5138916;27;20372;-64
2022/05/23 01:40:39;;;;;;;23.73;11.88;;;;;;;16.16;90.82;100491.56;5137537;27;20026;-65
2022/05/23 01:43:05;;;;;;;24.77;11.95;;;;;;;16.17;91.90;100488.00;5139003;27;20023;-65
2022/05/23 01:45:37;;;;;;;23.60;12.20;;;;;;;16.08;91.62;100490.88;5138147;27;20026;-64
2022/05/23 01:48:04;;;;;;;25.17;12.32;;;;;;;16.01;92.76;100496.34;5138734;27;20049;-65
2022/05/23 01:50:30;;;;;;;24.50;12.07;;;;;;;15.99;98.87;100500.84;5144885;27;20081;-65
2022/05/23 01:52:58;;;;;;;23.42;12.20;;;;;;;15.94;98.66;100505.41;5138359;27;20426;-64
2022/05/23 01:55:23;;;;;;;22.80;11.77;;;;;;;15.91;100.00;100502.81;5117005;27;20023;-65
2022/05/23 01:57:49;;;;;;;24.63;12.18;;;;;;;15.97;100.00;100496.47;5138922;27;20347;-65
2022/05/23 02:02:58;;;;;;;24.27;12.60;;;;;;;15.97;99.88;100481.31;5141105;27;20073;-65
2022/05/23 02:05:25;;;;;;;23.27;12.18;;;;;;;15.94;100.00;100475.22;5138901;27;20477;-65
2022/05/23 02:07:52;;;;;;;24.70;12.48;;;;;;;15.95;99.56;100475.16;5141358;27;20035;-63
2022/05/23 02:10:18;;;;;;;23.70;12.57;;;;;;;15.90;100.00;100477.09;5139689;27;20030;-64
2022/05/23 02:12:43;;;;;;;24.13;13.02;;;;;;;15.80;100.00;100481.75;5139991;27;20378;-64
2022/05/23 02:15:09;;;;;;;25.50;12.98;;;;;;;15.81;100.00;100477.28;5136337;27;20024;-64
2022/05/23 02:17:35;;;;;;;23.38;12.65;;;;;;;15.75;100.00;100480.06;5141399;27;20480;-64
2022/05/23 02:20:02;;;;;;;23.45;12.18;;;;;;;15.80;100.00;100481.75;5134501;27;20035;-63
2022/05/23 02:22:27;;;;;;;24.25;13.05;;;;;;;15.80;100.00;100476.41;5133389;27;20392;-63
2022/05/23 02:24:53;;;;;;;24.85;13.23;;;;;;;15.76;100.00;100480.03;5139884;27;20027;-64
2022/05/23 02:27:18;;;;;;;24.27;12.98;;;;;;;15.75;100.00;100472.94;5140320;27;20026;-64
2022/05/23 02:29:43;;;;;;;25.33;13.25;;;;;;;15.69;100.00;100468.63;5138097;27;20041;-63
2022/05/23 02:32:10;;;;;;;24.83;13.57;;;;;;;15.73;100.00;100463.22;5138045;27;20027;-62
2022/05/23 02:34:36;;;;;;;24.45;13.65;;;;;;;15.69;100.00;100457.97;5141031;27;20027;-62
2022/05/23 02:37:01;;;;;;;23.08;12.40;;;;;;;15.77;100.00;100454.25;5136289;27;20497;-63
2022/05/23 02:39:27;;;;;;;24.60;13.60;;;;;;;15.75;100.00;100461.41;5137035;27;20123;-64
2022/05/23 02:41:52;;;;;;;25.63;13.35;;;;;;;15.65;100.00;100445.66;5137533;27;20031;-63
2022/05/23 02:44:17;;;;;;;23.65;13.95;;;;;;;15.61;100.00;100451.06;5117765;28;20062;-62
2022/05/23 02:46:43;;;;;;;25.67;14.32;;;;;;;15.55;100.00;100449.41;5134624;27;20454;-62
2022/05/23 02:49:08;;;;;;;24.30;14.05;;;;;;;15.56;100.00;100444.97;5136891;27;20123;-62
2022/05/23 02:51:34;;;;;;;23.52;13.60;;;;;;;15.58;100.00;100437.81;5136509;27;20029;-63
2022/05/23 02:54:00;;;;;;;25.85;14.15;;;;;;;15.57;100.00;100426.28;5136556;27;20024;-63
2022/05/23 02:56:26;;;;;;;24.13;14.43;;;;;;;15.58;100.00;100416.50;5136397;27;20106;-64
2022/05/23 02:58:51;;;;;;;23.50;13.90;;;;;;;15.56;100.00;100413.88;5138407;27;20136;-63
2022/05/23 03:01:17;;;;;;;25.35;14.23;;;;;;;15.43;100.00;100407.94;5138079;27;20039;-62
2022/05/23 03:03:42;;;;;;;24.20;13.73;;;;;;;15.47;100.00;100396.31;5140908;27;20034;-62
2022/05/23 03:06:08;;;;;;;24.02;13.77;;;;;;;15.39;100.00;100384.09;5139020;27;20021;-62
2022/05/23 03:08:34;;;;;;;23.83;13.90;;;;;;;15.29;100.00;100378.97;5136098;27;20035;-63
2022/05/23 03:11:02;;;;;;;25.25;14.43;;;;;;;15.35;100.00;100364.66;5139552;27;20080;-62
2022/05/23 03:13:28;;;;;;;24.60;14.32;;;;;;;15.28;100.00;100355.03;5103148;27;20118;-63
2022/05/23 03:15:54;;;;;;;25.15;14.13;;;;;;;15.22;100.00;100356.06;5141641;27;20022;-62
2022/05/23 03:18:19;;;;;;;24.35;14.10;;;;;;;15.18;100.00;100354.38;5137954;27;20043;-62
2022/05/23 03:20:45;;;;;;;25.25;13.90;;;;;;;15.18;100.00;100351.72;5141500;27;20068;-62
2022/05/23 03:28:41;;;;;;;25.02;14.43;;;;;;;15.04;100.00;100338.69;5139599;27;20066;-62
2022/05/23 03:31:07;;;;;;;24.13;14.15;;;;;;;15.01;100.00;100337.91;5142321;27;20031;-62
2022/05/23 03:33:33;;;;;;;26.00;14.43;;;;;;;14.97;100.00;100327.31;5143371;27;20026;-62
2022/05/23 03:36:00;;;;;;;24.52;14.15;;;;;;;14.95;100.00;100330.91;5142972;27;20098;-63
2022/05/23 03:38:25;;;;;;;25.73;14.27;;;;;;;14.94;100.00;100326.50;5141376;27;20125;-63
2022/05/23 03:40:50;;;;;;;24.05;14.02;;;;;;;14.89;100.00;100321.28;5141659;27;20106;-63
2022/05/23 03:43:16;;;;;;;25.77;14.00;;;;;;;14.86;100.00;100316.03;5141124;27;20034;-62
2022/05/23 03:45:41;;;;;;;26.20;13.90;;;;;;;14.85;100.00;100314.28;5141708;27;20018;-64
2022/05/23 03:48:07;;;;;;;25.38;14.50;;;;;;;14.84;100.00;100312.53;5139941;27;20023;-63
2022/05/23 03:50:34;;;;;;;24.20;13.57;;;;;;;14.86;100.00;100316.03;5137995;27;20031;-63
2022/05/23 03:53:00;;;;;;;25.92;14.02;;;;;;;14.81;100.00;100305.50;5142018;27;20038;-63
2022/05/23 03:55:26;;;;;;;23.63;13.75;;;;;;;14.79;100.00;100299.34;5141605;27;20024;-63
2022/05/23 03:57:51;;;;;;;25.40;14.05;;;;;;;14.73;100.00;100299.44;5142959;27;20034;-64
2022/05/23 04:00:18;;;;;;;24.73;14.23;;;;;;;14.71;100.00;100295.06;5140071;27;20047;-63
2022/05/23 04:02:43;;;;;;;24.58;14.20;;;;;;;14.68;100.00;100296.03;5143107;27;20106;-63
2022/05/23 04:05:11;;;;;;;24.42;14.52;;;;;;;14.69;100.00;100294.22;5138944;27;20139;-62
2022/05/23 04:07:38;;;;;;;25.38;14.65;;;;;;;14.69;100.00;100294.22;5141363;27;20508;-63
2022/05/23 04:10:10;;;;;;;25.08;14.07;;;;;;;14.71;100.00;100292.41;5141544;27;20031;-63
2022/05/23 04:12:36;;;;;;;26.52;14.85;;;;;;;14.70;100.00;100282.69;5141232;27;20023;-63
2022/05/23 04:15:03;;;;;;;25.17;14.52;;;;;;;14.62;100.00;100280.19;5138532;27;20532;-63
2022/05/23 04:17:28;;;;;;;25.05;14.52;;;;;;;14.62;100.00;100270.44;5142184;27;20019;-62
2022/05/23 04:19:54;;;;;;;24.52;14.95;;;;;;;14.58;100.00;100263.38;5142595;27;20027;-63
2022/05/23 04:22:19;;;;;;;25.73;14.65;;;;;;;14.67;100.00;100272.13;5139274;27;20078;-62
2022/05/23 04:24:45;;;;;;;25.90;15.57;;;;;;;14.72;100.00;100270.22;5142557;27;20055;-63
2022/05/23 04:27:10;;;;;;;24.52;14.88;;;;;;;14.73;100.00;100269.31;5139511;27;20031;-63
2022/05/23 04:29:35;;;;;;;26.23;15.57;;;;;;;14.76;100.00;100263.94;5144090;27;20029;-62
2022/05/23 04:32:01;;;;;;;24.60;15.50;;;;;;;14.81;100.00;100270.91;5135766;27;20023;-62
2022/05/23 04:37:10;;;;;;;25.80;15.05;;;;;;;14.96;100.00;100259.03;5136853;27;20046;-62
2022/05/23 04:39:35;;;;;;;26.83;15.80;;;;;;;15.01;100.00;100266.03;5138783;27;20416;-63
2022/05/23 04:42:01;;;;;;;27.38;15.48;;;;;;;15.15;100.00;100263.94;5142156;27;20141;-63
2022/05/23 04:44:27;;;;;;;26.90;15.80;;;;;;;15.26;100.00;100261.91;5139164;27;20023;-62
2022/05/23 04:49:45;;;;;;;26.42;15.07;;;;;;;15.42;100.00;100245.53;5138533;27;20087;-65
2022/05/23 04:52:14;;;;;;;25.55;14.98;;;;;;;15.38;100.00;100250.06;5118161;27;20099;-65
2022/05/23 04:54:41;;;;;;;26.40;14.85;;;;;;;15.37;100.00;100250.97;5140387;27;20019;-65
2022/05/23 04:57:07;;;;;;;24.52;15.18;;;;;;;15.37;100.00;100250.97;5139082;27;20511;-65
2022/05/23 04:59:33;;;;;;;25.23;14.98;;;;;;;15.37;100.00;100252.75;5139479;27;20381;-63
2022/05/23 05:02:01;;;;;;;25.05;14.95;;;;;;;15.45;100.00;100238.34;5137693;27;20019;-65
2022/05/23 05:04:26;;;;;;;27.08;14.73;;;;;;;15.49;100.00;100248.00;5138851;27;20148;-64
2022/05/23 05:06:52;;;;;;;24.58;14.77;;;;;;;15.52;100.00;100247.03;5139625;27;20113;-64
2022/05/23 05:09:17;;;;;;;24.80;14.50;;;;;;;15.65;100.00;100248.50;5141353;27;20019;-65
2022/05/23 05:11:42;;;;;;;27.45;14.43;;;;;;;15.71;100.00;100241.25;5142012;27;20512;-65
2022/05/23 05:14:08;;;;;;;26.17;14.93;;;;;;;15.77;100.00;100225.09;5140456;27;20020;-65
2022/05/23 05:16:33;;;;;;;25.73;14.43;;;;;;;15.97;100.00;100221.91;5139168;27;20023;-66
2022/05/23 05:18:59;;;;;;;24.80;14.27;;;;;;;16.04;100.00;100210.16;5135881;27;20462;-64
2022/05/23 05:21:25;;;;;;;24.63;13.73;;;;;;;16.12;100.00;100210.81;5141686;27;20172;-65
2022/05/23 05:23:50;;;;;;;24.80;14.55;;;;;;;16.14;100.00;100200.97;5141142;27;20114;-66
2022/05/23 05:26:16;;;;;;;24.63;14.63;;;;;;;16.28;100.00;100194.38;5136495;27;20422;-63
2022/05/23 05:28:41;;;;;;;25.63;14.07;;;;;;;16.31;100.00;100189.81;5140791;27;20027;-62
2022/05/23 05:31:14;;;;;;;23.52;13.90;;;;;;;16.33;100.00;100195.13;5139308;27;20430;-62
2022/05/23 05:33:46;;;;;;;25.02;13.90;;;;;;;16.44;100.00;100195.69;5138244;27;20469;-62
2022/05/23 05:36:19;;;;;;;25.45;14.32;;;;;;;16.56;100.00;100197.09;5144031;27;20051;-62
2022/05/23 05:38:54;;;;;;;24.00;14.48;;;;;;;16.64;100.00;100181.69;5138596;27;20023;-67
2022/05/23 05:41:27;;;;;;;25.38;14.63;;;;;;;16.70;100.00;100181.53;5135527;27;20026;-67
2022/05/23 05:44:00;;;;;;;24.75;14.50;;;;;;;16.82;100.00;100179.38;5134782;27;20035;-66
2022/05/23 05:46:30;;;;;;;25.92;14.60;;;;;;;16.97;100.00;100173.59;5137951;27;20097;-66
2022/05/23 05:48:59;;;;;;;24.20;14.18;;;;;;;17.05;100.00;100170.66;5119996;27;20467;-67
2022/05/23 05:51:26;;;;;;;24.48;14.50;;;;;;;17.06;100.00;100165.25;5139267;27;20023;-68
2022/05/23 05:53:51;;;;;;;25.70;14.85;;;;;;;17.15;100.00;100158.72;5141088;27;20125;-67
2022/05/23 05:56:18;;;;;;;25.45;14.23;;;;;;;17.23;100.00;100158.50;5115568;27;20097;-66
2022/05/23 05:58:44;;;;;;;24.38;14.30;;;;;;;17.26;100.00;100153.06;5142430;27;20068;-68
2022/05/23 06:01:09;;;;;;;23.88;13.48;;;;;;;17.36;100.00;100151.81;5139054;27;20027;-67
2022/05/23 06:03:34;;;;;;;24.02;13.75;;;;;;;17.40;100.00;100148.09;5138722;27;20107;-67
2022/05/23 06:11:29;;;;;;;24.10;12.77;;;;;;;17.63;100.00;100159.75;5136804;27;20029;-68
2022/05/23 06:13:57;;;;;;;24.05;12.90;;;;;;;17.72;100.00;100156.78;5134881;27;20027;-66
2022/05/23 06:16:28;;;;;;;25.35;13.40;;;;;;;17.78;100.00;100156.53;5140393;27;20020;-68
2022/05/23 06:18:55;;;;;;;22.98;12.27;;;;;;;17.98;97.99;100146.06;5133014;27;20015;-67
2022/05/23 06:21:21;;;;;;;24.25;12.77;;;;;;;18.07;97.70;100135.03;5134320;27;20048;-67
2022/05/23 06:23:46;;;;;;;26.00;12.75;;;;;;;18.10;96.31;100134.91;5138548;27;20019;-67
2022/05/23 06:26:14;;;;;;;24.73;12.57;;;;;;;18.22;96.46;100134.44;5137534;27;20449;-67
2022/05/23 06:28:40;;;;;;;25.90;12.55;;;;;;;18.25;94.73;100128.13;5136987;27;20080;-66
2022/05/23 06:31:05;;;;;;;25.20;12.43;;;;;;;18.34;92.99;100121.53;5138367;27;20027;-69
2022/05/23 06:33:31;;;;;;;24.30;12.43;;;;;;;18.38;92.22;100117.81;5140207;27;20393;-68
2022/05/23 06:35:56;;;;;;;23.10;11.70;;;;;;;18.44;91.45;100121.09;5138361;27;20023;-68
2022/05/23 06:38:22;;;;;;;25.35;12.38;;;;;;;18.38;91.45;100112.47;5137077;27;20477;-67
2022/05/23 06:40:50;;;;;;;24.00;12.35;;;;;;;18.24;89.64;100115.66;5134817;27;20028;-68
2022/05/23 06:43:15;;;;;;;23.15;12.13;;;;;;;18.27;91.87;100123.56;5139448;27;20027;-66
2022/05/23 06:45:41;;;;;;;23.55;11.60;;;;;;;18.33;90.29;100120.66;5136709;27;20466;-68
2022/05/23 06:48:08;;;;;;;22.38;11.18;;;;;;;18.35;89.10;100117.91;5136725;27;20031;-69
2022/05/23 06:50:33;;;;;;;23.77;11.40;;;;;;;18.46;89.01;100121.03;5141289;27;20442;-70
2022/05/23 06:53:08;;;;;;;23.60;11.57;;;;;;;18.68;88.17;100120.19;5141011;27;20067;-72
2022/05/23 06:55:36;;;;;;;25.13;11.57;;;;;;;18.91;86.24;100116.59;5140315;27;20035;-72
2022/05/23 06:58:02;;;;;;;23.17;10.55;;;;;;;19.12;80.40;100118.38;5121776;27;20027;-71
2022/05/23 07:00:31;;;;;;;21.95;10.20;;;;;;;19.20;79.16;100122.53;5140957;27;20087;-72
2022/05/23 07:02:56;;;;;;;21.90;9.88;;;;;;;19.20;80.67;100119.84;5140599;27;20039;-72
2022/05/23 07:13:34;;;;;;;22.17;9.68;;;;;;;19.45;74.05;100117.81;5138420;27;20103;-66
2022/05/23 07:16:00;;;;;;;21.23;9.50;;;;;;;19.48;74.24;100120.41;5142038;27;20512;-62
2022/05/23 07:18:27;;;;;;;24.02;9.95;;;;;;;19.44;73.57;100116.09;5138420;27;20035;-64
2022/05/23 07:20:53;;;;;;;23.17;9.77;;;;;;;19.40;74.13;100119.84;5141591;27;20152;-64
2022/05/23 07:23:19;;;;;;;23.23;10.10;;;;;;;19.48;78.56;100117.72;5121921;27;20038;-63
2022/05/23 07:25:45;;;;;;;24.30;10.73;;;;;;;19.54;81.74;100119.22;5139642;27;20031;-64
2022/05/23 07:28:10;;;;;;;22.52;10.77;;;;;;;19.41;81.77;100110.00;5141191;27;20114;-65
2022/05/23 07:30:36;;;;;;;21.52;10.50;;;;;;;19.39;80.98;100112.75;5143042;27;20465;-62
2022/05/23 07:33:01;;;;;;;25.10;11.20;;;;;;;19.45;81.20;100120.50;5143093;27;20342;-64
2022/05/23 07:35:27;;;;;;;23.55;10.75;;;;;;;19.49;79.03;100114.06;5141149;27;20350;-64
2022/05/23 07:37:53;;;;;;;24.27;10.27;;;;;;;19.63;75.31;100120.63;5139527;27;20494;-63
2022/05/23 07:40:19;;;;;;;23.05;10.57;;;;;;;19.90;76.23;100117.69;5139069;27;20033;-64
2022/05/23 07:42:45;;;;;;;23.52;10.38;;;;;;;20.15;73.37;100126.34;5142973;27;20102;-65
2022/05/23 07:45:12;;;;;;;22.42;10.00;;;;;;;20.38;71.65;100124.38;5139855;27;20023;-64
2022/05/23 07:47:38;;;;;;;20.88;9.27;;;;;;;20.67;68.50;100114.06;5143766;27;20031;-64
2022/05/23 07:50:09;;;;;;;20.88;9.15;;;;;;;20.98;64.90;100102.66;5141994;27;20535;-65
2022/05/23 07:52:35;;;;;;;22.40;8.83;;;;;;;21.11;63.77;100105.59;5140997;27;20050;-64
2022/05/23 08:00:32;;;;;;;21.00;8.65;;;;;;;21.15;62.05;100106.31;5139675;27;20042;-63
2022/05/23 08:03:18;;;;;;;20.48;8.43;;;;;;;21.27;62.34;100102.97;5139501;27;20027;-63
2022/05/23 08:05:45;;;;;;;21.55;8.20;;;;;;;21.45;60.71;100103.84;5139026;27;20034;-65
2022/05/23 08:08:11;;;;;;;20.77;8.05;;;;;;;21.59;58.80;100093.25;5138923;27;20679;-65
2022/05/23 08:10:37;;;;;;;19.98;8.05;;;;;;;21.62;59.10;100083.28;5144522;27;20068;-65
2022/05/23 08:13:08;;;;;;;21.25;8.10;;;;;;;21.73;57.72;100084.44;5144238;27;20023;-63
2022/05/23 08:15:37;;;;;;;20.40;7.65;;;;;;;21.70;57.62;100070.31;5140474;27;20041;-65
2022/05/23 08:18:04;;;;;;;22.42;8.07;;;;;;;21.39;57.85;100066.53;5141308;27;20426;-64
2022/05/23 08:20:30;;;;;;;21.65;8.00;;;;;;;21.17;59.62;100065.00;5141009;27;20102;-63
2022/05/23 08:22:57;;;;;;;20.60;8.15;;;;;;;20.97;59.96;100059.75;5142956;27;20457;-63
2022/05/23 08:25:23;;;;;;;21.52;8.10;;;;;;;20.88;59.63;100061.97;5139048;27;20019;-63
2022/05/23 08:27:49;;;;;;;19.20;7.53;;;;;;;20.96;59.40;100058.03;5136127;27;20473;-63
2022/05/23 08:30:14;;;;;;;21.02;7.75;;;;;;;21.08;59.67;100054.69;5137772;27;20027;-63
2022/05/23 08:32:39;;;;;;;22.77;7.88;;;;;;;21.27;60.24;100046.53;5140001;27;20038;-63
2022/05/23 08:35:06;;;;;;;19.77;7.60;;;;;;;21.31;60.72;100044.56;5143951;27;20126;-65
2022/05/23 08:37:31;;;;;;;20.58;7.40;;;;;;;21.38;58.95;100043.31;5141001;27;20023;-68
2022/05/23 08:39:56;;;;;;;19.88;7.68;;;;;;;21.33;58.19;100038.16;5139368;27;20026;-68
2022/05/23 08:42:33;;;;;;;20.30;7.07;;;;;;;21.53;59.00;100034.44;5140643;27;20019;-69
2022/05/23 08:45:13;;;;;;;20.33;7.22;;;;;;;21.86;57.15;100022.78;5140292;27;20061;-69
2022/05/23 08:48:00;;;;;;;20.88;7.25;;;;;;;22.04;57.10;100020.88;5135566;27;20499;-68
2022/05/23 08:50:43;;;;;;;20.35;7.70;;;;;;;22.24;55.79;100008.97;5138154;27;20430;-68
2022/05/23 08:53:15;;;;;;;19.60;7.35;;;;;;;22.25;55.39;100018.78;5136232;27;20046;-68
2022/05/23 08:55:46;;;;;;;20.90;7.30;;;;;;;22.38;55.68;100021.69;5135576;27;20034;-67
2022/05/23 08:58:29;;;;;;;21.63;7.78;;;;;;;22.48;56.36;100016.63;5136478;27;20027;-67
2022/05/23 09:01:05;;;;;;;22.02;7.93;;;;;;;22.61;55.87;100001.47;5134914;27;20025;-67
2022/05/23 09:03:36;;;;;;;19.95;7.10;;;;;;;22.78;55.32;100005.00;5137446;27;20030;-68
2022/05/23 09:06:17;;;;;;;20.20;7.38;;;;;;;22.77;54.73;100000.56;5139985;27;20105;-69
2022/05/23 09:09:01;;;;;;;21.25;8.07;;;;;;;22.51;56.40;99989.50;5139427;27;20037;-69
2022/05/23 09:11:32;;;;;;;21.00;8.00;;;;;;;22.38;57.02;99984.00;5137813;27;20048;-69
2022/05/23 09:13:58;;;;;;;56.33;14.15;;;;;;;22.37;57.42;99979.56;5139689;27;20370;-69
2022/05/23 09:16:41;;;;;;;20.83;7.15;;;;;;;22.32;55.82;99983.44;5136051;27;20023;-65
2022/05/23 09:19:12;;;;;;;21.77;6.90;;;;;;;22.28;55.46;99985.47;5120133;27;20038;-64
2022/05/23 09:24:22;;;;;;;19.90;6.95;;;;;;;22.07;56.04;99988.41;5137132;27;20203;-64
2022/05/23 09:26:57;;;;;;;20.15;7.20;;;;;;;22.00;57.10;99983.47;5143479;27;20046;-64
2022/05/23 09:29:38;;;;;;;19.77;7.60;;;;;;;21.84;57.74;99970.88;5138272;27;20028;-64
2022/05/23 09:32:09;;;;;;;20.13;7.07;;;;;;;21.83;58.38;99968.28;5137276;27;20019;-64
2022/05/23 09:34:36;;;;;;;21.23;7.70;;;;;;;22.02;57.39;99951.94;5139379;27;20034;-64
2022/05/23 09:37:10;;;;;;;19.27;7.43;;;;;;;22.44;57.31;99951.31;5137204;27;20069;-64
2022/05/23 09:39:36;;;;;;;22.70;8.20;;;;;;;22.86;55.58;99938.03;5138981;27;20060;-64
2022/05/23 09:47:46;;;;;;;22.00;8.02;;;;;;;24.52;49.00;99922.94;5135139;27;20504;-64
2022/05/23 09:50:36;;;;;;;20.83;8.57;;;;;;;23.84;50.92;99927.44;5136561;27;20424;-64
2022/05/23 09:53:02;;;;;;;20.90;8.45;;;;;;;23.45;50.60;99921.81;5008159;28;20401;-64
2022/05/23 09:55:33;;;;;;;21.77;8.18;;;;;;;23.37;51.52;99921.44;5010957;28;20124;-64
2022/05/23 09:58:07;;;;;;;19.45;7.90;;;;;;;23.75;51.10;99911.84;5012657;28;20477;-65
2022/05/23 10:00:36;;;;;;;20.23;7.55;;;;;;;26.26;45.57;99905.09;5006934;28;20148;-64
2022/05/23 10:03:04;;;;;;;19.23;7.07;;;;;;;27.62;41.49;99902.59;5006969;28;20041;-64
2022/05/23 10:05:34;;;;;;;19.20;7.00;;;;;;;28.49;38.34;99900.84;5005906;28;20056;-65
2022/05/23 10:08:03;;;;;;;19.90;7.07;;;;;;;28.34;39.20;99898.44;5010297;28;20074;-64
2022/05/23 10:10:31;;;;;;;20.48;6.97;;;;;;;28.00;40.20;99890.44;5005465;28;20034;-67
2022/05/23 10:13:24;;;;;;;20.48;7.40;;;;;;;28.87;39.11;99889.38;5007631;28;20091;-65
2022/05/23 10:15:55;;;;;;;20.25;7.20;;;;;;;29.09;37.90;99881.19;5007815;28;20061;-64
2022/05/23 10:18:30;;;;;;;19.33;7.40;;;;;;;30.65;35.68;99877.91;5008039;28;20046;-66
2022/05/23 10:20:58;;;;;;;20.73;7.43;;;;;;;31.67;32.61;99882.56;5008795;28;20030;-66
2022/05/23 10:23:29;;;;;;;18.70;7.22;;;;;;;31.00;33.05;99895.50;5012924;28;20173;-66
2022/05/23 10:26:03;;;;;;;19.17;6.50;;;;;;;30.56;33.38;99894.13;5004993;28;20540;-66
2022/05/23 10:28:41;;;;;;;19.75;6.82;;;;;;;31.29;33.86;99900.84;5010191;28;20129;-67
2022/05/23 10:31:22;;;;;;;19.00;6.80;;;;;;;32.56;31.92;99904.63;5131549;27;20036;-65
2022/05/23 10:33:55;;;;;;;19.23;6.45;;;;;;;33.19;29.35;99893.44;5138662;27;20031;-67
2022/05/23 10:36:24;;;;;;;17.10;5.50;;;;;;;33.25;28.56;99891.97;5139114;27;20027;-65
2022/05/23 10:42:10;;;;;;;19.00;6.10;;;;;;;32.97;29.93;99883.03;5138379;27;20150;-66
2022/05/23 10:44:54;;;;;;;19.23;6.40;;;;;;;33.50;28.65;99859.22;5136397;27;20027;-64
2022/05/23 10:47:56;;;;;;;18.52;5.88;;;;;;;34.99;28.78;99861.03;5136712;27;20382;-64
2022/05/23 10:50:29;;;;;;;19.10;6.10;;;;;;;35.33;26.46;99850.81;5121056;27;20109;-65
2022/05/23 10:53:12;;;;;;;19.08;6.55;;;;;;;35.83;27.01;99845.94;5137325;27;20028;-65
2022/05/23 10:55:53;;;;;;;17.90;5.90;;;;;;;36.36;25.91;99841.41;5140489;27;20113;-70
2022/05/23 10:58:45;;;;;;;16.27;5.87;;;;;;;36.23;24.09;99828.28;5130837;27;20027;-70
2022/05/23 11:01:28;;;;;;;18.75;5.95;;;;;;;35.34;25.08;99836.06;5136855;27;20038;-69
2022/05/23 11:04:10;;;;;;;17.25;5.32;;;;;;;35.91;24.56;99837.63;5140153;27;20110;-65
2022/05/23 11:06:56;;;;;;;;;;;;;;;37.33;24.24;99828.72;5139926;27;20059;-70
2022/05/23 11:09:55;;;;;;;15.13;5.35;;;;;;;37.28;24.40;99804.50;5134470;27;20010;-70
2022/05/23 11:12:30;;;;;;;18.02;5.82;;;;;;;37.57;23.50;99788.06;5141053;27;20025;-65
2022/05/23 11:15:14;;;;;;;16.73;5.30;;;;;;;37.40;22.37;99771.78;5134946;27;20030;-66
2022/05/23 11:17:54;;;;;;;15.85;5.20;;;;;;;37.72;22.95;99763.19;5137470;27;20030;-66
2022/05/23 11:20:26;;;;;;;18.80;5.60;;;;;;;36.44;23.10;99753.31;5139681;27;20023;-66
2022/05/23 11:23:29;;;;;;;15.93;5.00;;;;;;;34.49;25.55;99756.03;5136905;27;20047;-66
2022/05/23 11:26:03;;;;;;;16.67;5.38;;;;;;;32.29;28.57;99740.56;5131404;27;20368;-66
2022/05/23 11:34:31;;;;;;;16.30;4.70;;;;;;;29.58;31.92;99728.94;5138012;27;20114;-66
2022/05/23 11:37:43;;;;;;;17.80;5.07;;;;;;;29.49;32.24;99714.34;5139344;27;20453;-65
2022/05/23 11:40:08;;;;;;;16.25;4.75;;;;;;;29.92;31.91;99714.94;5133174;27;20066;-65
2022/05/23 11:42:49;;;;;;;16.67;4.82;;;;;;;30.34;31.72;99720.00;5139679;27;20030;-66
2022/05/23 11:48:34;;;;;;;17.25;5.70;;;;;;;30.48;32.43;99714.09;5141750;27;20046;-65
2022/05/23 11:51:36;;;;;;;18.05;5.32;;;;;;;29.80;33.27;99698.72;5138678;27;20028;-65
2022/05/23 11:54:08;;;;;;;17.77;5.50;;;;;;;29.05;33.89;99698.38;5032461;28;20068;-65
2022/05/23 11:57:00;;;;;;;18.50;5.78;;;;;;;28.90;34.06;99692.47;5034014;28;20514;-66
2022/05/23 11:59:26;;;;;;;14.90;4.80;;;;;;;28.57;34.50;99690.91;5032210;28;20037;-66
2022/05/23 12:02:12;;;;;;;15.10;4.67;;;;;;;28.30;35.08;99685.06;5033778;28;20032;-66
2022/05/23 12:04:44;;;;;;;17.45;5.30;;;;;;;27.90;35.42;99679.53;5036191;28;20276;-67
2022/05/23 12:07:29;;;;;;;17.20;5.30;;;;;;;27.57;36.04;99676.03;5031786;28;20053;-65
2022/05/23 12:09:54;;;;;;;16.25;4.85;;;;;;;26.88;37.00;99671.78;5035865;28;20163;-66
2022/05/23 12:12:27;;;;;;;17.25;4.95;;;;;;;26.50;37.63;99682.00;5032845;28;20112;-65
2022/05/23 12:14:54;;;;;;;15.77;4.90;;;;;;;26.19;39.07;99686.34;5035931;28;20048;-66
2022/05/23 12:17:29;;;;;;;14.57;4.63;;;;;;;25.91;38.39;99674.94;5038513;28;20033;-66
2022/05/23 12:19:57;;;;;;;15.98;4.40;;;;;;;25.88;39.29;99677.91;5038791;28;20036;-69
2022/05/23 12:22:39;;;;;;;14.77;4.60;;;;;;;25.78;39.46;99672.34;5034167;28;20084;-67